Time;durP1;ratioP1;P1;durP2;ratioP2;P2;SDS_P1;SDS_P2;PMS_P1;PMS_P2;Temp;Humidity;BMP_temperature;BMP_pressure;BME280_temperature;BME280_humidity;BME280_pressure;Samples;Min_cycle;Max_cycle;Signal;HPM_P1;HPM_P2
2021/07/17 00:02:22;;;;;;;23.30;17.77;;;20.70;99.90;;;;;;4957437;28;20178;-65
2021/07/17 00:04:48;;;;;;;22.30;18.53;;;20.60;99.90;;;;;;4957677;28;20430;-65
2021/07/17 00:07:14;;;;;;;26.93;23.47;;;20.40;99.90;;;;;;4955750;29;20433;-64
2021/07/17 00:09:40;;;;;;;21.07;18.80;;;20.50;99.90;;;;;;4945865;29;20182;-64
2021/07/17 00:12:06;;;;;;;24.20;20.73;;;20.50;99.90;;;;;;4938195;29;20912;-64
2021/07/17 00:14:32;;;;;;;23.43;20.20;;;20.60;99.90;;;;;;4955281;28;20774;-64
2021/07/17 00:16:58;;;;;;;23.50;20.93;;;20.50;99.90;;;;;;4957640;29;20459;-64
2021/07/17 00:19:23;;;;;;;26.13;21.80;;;20.50;99.90;;;;;;4957421;29;20572;-64
2021/07/17 00:21:49;;;;;;;24.43;21.83;;;20.40;99.90;;;;;;4957266;29;20256;-64
2021/07/17 00:24:15;;;;;;;21.60;19.23;;;20.50;99.90;;;;;;4935413;29;20207;-64
2021/07/17 00:26:41;;;;;;;25.63;22.77;;;20.60;99.90;;;;;;4934882;29;20218;-64
2021/07/17 00:29:07;;;;;;;25.53;21.40;;;20.60;99.90;;;;;;4953818;29;20194;-65
2021/07/17 00:31:32;;;;;;;27.23;21.63;;;20.40;99.90;;;;;;4957137;29;20193;-66
2021/07/17 00:33:58;;;;;;;34.20;24.63;;;20.40;99.90;;;;;;4957019;28;20429;-66
2021/07/17 00:36:24;;;;;;;26.30;19.70;;;20.40;99.90;;;;;;4957370;29;20166;-65
2021/07/17 00:38:50;;;;;;;23.10;19.33;;;20.40;99.90;;;;;;4957444;28;20565;-65
2021/07/17 00:41:16;;;;;;;22.13;19.50;;;20.30;99.90;;;;;;4955600;29;20422;-64
2021/07/17 00:43:41;;;;;;;30.47;23.40;;;20.30;99.90;;;;;;4956880;28;20214;-65
2021/07/17 00:46:07;;;;;;;24.67;21.97;;;20.20;99.90;;;;;;4957114;29;20177;-64
2021/07/17 00:48:34;;;;;;;27.97;22.93;;;20.30;99.90;;;;;;4955142;29;20280;-64
2021/07/17 00:50:59;;;;;;;26.57;21.90;;;20.40;99.90;;;;;;4956810;28;20210;-64
2021/07/17 00:53:25;;;;;;;28.47;22.00;;;20.40;99.90;;;;;;4955295;28;21367;-64
2021/07/17 00:55:52;;;;;;;27.70;23.37;;;20.20;99.90;;;;;;4956716;29;20181;-64
2021/07/17 00:58:22;;;;;;;25.80;21.87;;;20.10;99.90;;;;;;4956938;28;20178;-65
2021/07/17 01:00:50;;;;;;;26.63;22.93;;;20.10;99.90;;;;;;4955211;28;20929;-65
2021/07/17 01:03:17;;;;;;;23.87;20.63;;;20.10;99.90;;;;;;4956645;28;20521;-65
2021/07/17 01:05:43;;;;;;;23.37;20.83;;;20.00;99.90;;;;;;4956856;28;20406;-65
2021/07/17 01:08:08;;;;;;;27.03;20.53;;;20.20;99.90;;;;;;4956516;29;20453;-65
2021/07/17 01:10:34;;;;;;;26.03;20.63;;;20.10;99.90;;;;;;4956458;29;20169;-64
2021/07/17 01:13:00;;;;;;;24.27;21.63;;;20.30;99.90;;;;;;4954675;28;20571;-65
2021/07/17 01:15:26;;;;;;;25.37;22.27;;;20.30;99.90;;;;;;4955853;28;20398;-64
2021/07/17 01:17:51;;;;;;;25.00;20.80;;;20.20;99.90;;;;;;4956383;29;20757;-64
2021/07/17 01:20:21;;;;;;;23.57;20.33;;;20.30;99.90;;;;;;4956555;29;20178;-64
2021/07/17 01:22:48;;;;;;;25.90;22.50;;;20.20;99.90;;;;;;4955117;29;20178;-64
2021/07/17 01:25:24;;;;;;;30.23;22.77;;;20.10;99.90;;;;;;4956405;28;20473;-64
2021/07/17 01:27:56;;;;;;;21.73;19.33;;;20.10;99.90;;;;;;4955721;28;20445;-64
2021/07/17 01:30:25;;;;;;;24.23;21.63;;;20.20;99.90;;;;;;4954303;28;20962;-64
2021/07/17 01:32:51;;;;;;;24.40;20.90;;;20.20;99.90;;;;;;4956064;28;20485;-65
2021/07/17 01:35:17;;;;;;;27.43;23.57;;;20.00;99.90;;;;;;4955872;28;20476;-65
2021/07/17 01:37:43;;;;;;;22.60;20.20;;;19.90;99.90;;;;;;4956235;29;20274;-65
2021/07/17 01:40:12;;;;;;;25.43;21.87;;;20.00;99.90;;;;;;4956186;28;20217;-65
2021/07/17 01:42:38;;;;;;;26.67;22.03;;;19.90;99.90;;;;;;4954494;28;20178;-65
2021/07/17 01:45:06;;;;;;;26.87;24.00;;;19.90;99.90;;;;;;4955634;28;20445;-65
2021/07/17 01:47:32;;;;;;;24.10;21.27;;;19.80;99.90;;;;;;4955959;28;20410;-65
2021/07/17 01:49:59;;;;;;;27.83;22.50;;;19.80;99.90;;;;;;4954290;28;20516;-65
2021/07/17 01:52:25;;;;;;;25.47;19.60;;;19.70;99.90;;;;;;4955847;29;20405;-65
2021/07/17 01:54:52;;;;;;;26.43;21.53;;;19.90;99.90;;;;;;4954298;28;20973;-65
2021/07/17 01:57:18;;;;;;;24.43;21.63;;;19.90;99.90;;;;;;4955559;28;20158;-65
2021/07/17 01:59:45;;;;;;;20.20;18.07;;;20.00;99.90;;;;;;4955490;29;20497;-65
2021/07/17 02:02:12;;;;;;;26.37;21.80;;;20.00;99.90;;;;;;4954072;28;20174;-65
2021/07/17 02:04:37;;;;;;;29.70;23.73;;;20.00;99.90;;;;;;4955465;28;20461;-65
2021/07/17 02:07:04;;;;;;;22.57;19.97;;;20.00;99.90;;;;;;4955453;29;20437;-66
2021/07/17 02:09:30;;;;;;;22.63;20.10;;;19.90;99.90;;;;;;4949522;28;20533;-65
2021/07/17 02:11:56;;;;;;;21.53;19.03;;;19.80;99.90;;;;;;4936320;29;20462;-65
2021/07/17 02:14:21;;;;;;;23.50;20.60;;;19.80;99.90;;;;;;4936435;29;20242;-65
2021/07/17 02:16:47;;;;;;;27.47;22.40;;;19.90;99.90;;;;;;4936187;29;20651;-65
2021/07/17 02:19:19;;;;;;;27.00;22.73;;;19.70;99.90;;;;;;4936151;29;20820;-65
2021/07/17 02:21:49;;;;;;;29.97;24.57;;;19.40;99.90;;;;;;4949225;29;20185;-65
2021/07/17 02:24:15;;;;;;;27.30;23.37;;;19.40;99.90;;;;;;4955397;28;20430;-65
2021/07/17 02:26:42;;;;;;;28.67;23.17;;;19.20;99.90;;;;;;4955240;28;20895;-65
2021/07/17 02:29:09;;;;;;;27.10;21.57;;;19.10;99.90;;;;;;4955051;28;20484;-66
2021/07/17 02:31:36;;;;;;;24.87;19.83;;;19.20;99.90;;;;;;4955092;28;20452;-64
2021/07/17 02:34:03;;;;;;;25.37;22.60;;;19.30;99.90;;;;;;4953473;28;20449;-65
2021/07/17 02:36:29;;;;;;;26.50;20.07;;;19.50;99.90;;;;;;4955030;28;20766;-64
2021/07/17 02:38:55;;;;;;;25.47;20.63;;;19.50;99.90;;;;;;4953776;28;20501;-64
2021/07/17 02:41:22;;;;;;;23.47;20.43;;;19.50;99.90;;;;;;4954720;29;20413;-65
2021/07/17 02:43:48;;;;;;;23.93;20.70;;;19.50;99.90;;;;;;4954759;28;20213;-65
2021/07/17 02:46:13;;;;;;;22.30;19.80;;;19.50;99.90;;;;;;4953422;28;20422;-64
2021/07/17 02:48:39;;;;;;;21.70;19.27;;;19.50;99.90;;;;;;4954891;28;20538;-64
2021/07/17 02:51:05;;;;;;;30.03;23.10;;;19.50;99.90;;;;;;4954872;29;20174;-64
2021/07/17 02:53:30;;;;;;;25.87;21.57;;;19.30;99.90;;;;;;4953730;28;20198;-65
2021/07/17 02:55:56;;;;;;;28.70;22.80;;;19.30;99.90;;;;;;4954669;29;20171;-65
2021/07/17 02:58:21;;;;;;;23.53;21.03;;;19.30;99.90;;;;;;4954863;29;20173;-65
2021/07/17 03:00:53;;;;;;;22.90;19.83;;;19.30;99.90;;;;;;4953311;29;20739;-65
2021/07/17 03:03:19;;;;;;;20.57;18.33;;;19.20;99.90;;;;;;4955043;28;20276;-65
2021/07/17 03:05:45;;;;;;;24.10;19.63;;;19.20;99.90;;;;;;4954770;29;20438;-65
2021/07/17 03:08:12;;;;;;;22.90;20.47;;;19.20;99.90;;;;;;4954689;28;20197;-65
2021/07/17 03:10:38;;;;;;;27.53;21.73;;;19.30;99.90;;;;;;4953221;29;20424;-65
2021/07/17 03:13:04;;;;;;;24.13;20.37;;;19.30;99.90;;;;;;4955195;28;20749;-65
2021/07/17 03:15:30;;;;;;;26.67;22.30;;;19.30;99.90;;;;;;4952636;29;20265;-65
2021/07/17 03:17:55;;;;;;;22.60;20.20;;;19.30;99.90;;;;;;4924015;29;20656;-65
2021/07/17 03:20:21;;;;;;;23.63;20.60;;;19.40;99.90;;;;;;4954415;29;20170;-65
2021/07/17 03:22:47;;;;;;;20.77;18.57;;;19.30;99.90;;;;;;4954635;29;20209;-65
2021/07/17 03:25:13;;;;;;;23.90;21.40;;;19.40;99.90;;;;;;4954878;28;20186;-65
2021/07/17 03:27:38;;;;;;;25.53;20.30;;;19.50;99.90;;;;;;4954505;28;20166;-65
2021/07/17 03:30:06;;;;;;;22.27;19.57;;;19.50;99.90;;;;;;4954812;29;20425;-65
2021/07/17 03:32:32;;;;;;;20.40;18.30;;;19.40;99.90;;;;;;4954528;28;20307;-65
2021/07/17 03:34:57;;;;;;;22.20;19.80;;;19.40;99.90;;;;;;4954047;28;20904;-65
2021/07/17 03:37:23;;;;;;;24.57;21.90;;;19.40;99.90;;;;;;4954930;28;20406;-65
2021/07/17 03:39:49;;;;;;;24.20;20.97;;;19.50;99.90;;;;;;4958167;28;20175;-64
2021/07/17 03:42:15;;;;;;;24.60;21.40;;;19.40;99.90;;;;;;4957341;29;20405;-64
2021/07/17 03:44:41;;;;;;;28.30;22.03;;;19.20;99.90;;;;;;4940136;28;20215;-64
2021/07/17 03:47:06;;;;;;;27.60;22.10;;;19.10;99.90;;;;;;4928166;29;20505;-65
2021/07/17 03:49:32;;;;;;;25.30;21.50;;;19.20;99.90;;;;;;4938619;29;20312;-65
2021/07/17 03:51:57;;;;;;;24.77;22.10;;;19.20;99.90;;;;;;4937522;29;20254;-64
2021/07/17 03:54:23;;;;;;;22.13;19.90;;;19.20;99.90;;;;;;4938271;29;20683;-65
2021/07/17 03:56:49;;;;;;;22.63;20.33;;;19.30;99.90;;;;;;4941742;29;20205;-64
2021/07/17 03:59:14;;;;;;;28.00;23.80;;;19.40;99.90;;;;;;4958422;29;20170;-65
2021/07/17 04:01:40;;;;;;;26.77;22.57;;;19.50;99.90;;;;;;4957691;29;20170;-65
2021/07/17 04:04:07;;;;;;;25.37;22.60;;;19.40;99.90;;;;;;4954669;28;20262;-65
2021/07/17 04:06:35;;;;;;;26.50;23.70;;;19.40;99.90;;;;;;4938717;29;20221;-65
2021/07/17 04:09:01;;;;;;;26.33;20.83;;;19.40;99.90;;;;;;4938651;29;20486;-65
2021/07/17 04:11:26;;;;;;;22.37;19.87;;;19.50;99.90;;;;;;4938345;29;20442;-65
2021/07/17 04:13:52;;;;;;;25.23;21.17;;;19.40;99.90;;;;;;4938284;29;20190;-65
2021/07/17 04:16:17;;;;;;;23.53;20.90;;;19.40;99.90;;;;;;4938337;29;20513;-65
2021/07/17 04:18:43;;;;;;;22.57;20.27;;;19.40;99.90;;;;;;4946334;29;20273;-66
2021/07/17 04:21:11;;;;;;;23.40;17.80;;;19.50;99.90;;;;;;4957350;29;20174;-64
2021/07/17 04:23:38;;;;;;;23.60;21.00;;;19.50;99.90;;;;;;4957280;28;20342;-65
2021/07/17 04:26:04;;;;;;;26.10;21.47;;;19.40;99.90;;;;;;4957599;28;20831;-65
2021/07/17 04:28:30;;;;;;;28.03;22.03;;;19.20;99.90;;;;;;4957033;28;20495;-65
2021/07/17 04:30:56;;;;;;;27.63;21.67;;;19.10;99.90;;;;;;4957629;29;20453;-64
2021/07/17 04:33:22;;;;;;;26.30;21.93;;;19.20;99.90;;;;;;4957119;28;20201;-65
2021/07/17 04:35:47;;;;;;;29.03;22.63;;;19.10;99.90;;;;;;4957706;29;20406;-64
2021/07/17 04:38:13;;;;;;;23.00;20.10;;;19.10;99.90;;;;;;4957069;29;20201;-65
2021/07/17 04:40:38;;;;;;;26.20;22.67;;;19.10;99.90;;;;;;4955328;29;20182;-65
2021/07/17 04:43:04;;;;;;;27.23;22.30;;;19.20;99.90;;;;;;4957009;28;20174;-65
2021/07/17 04:45:29;;;;;;;24.27;21.60;;;19.10;99.90;;;;;;4957261;28;20627;-65
2021/07/17 04:47:55;;;;;;;25.40;21.53;;;19.20;99.90;;;;;;4957047;29;20201;-65
2021/07/17 04:50:21;;;;;;;27.17;23.10;;;19.10;99.90;;;;;;4956893;28;20170;-65
2021/07/17 04:52:47;;;;;;;25.20;21.77;;;19.10;99.90;;;;;;4957116;29;20261;-65
2021/07/17 04:55:12;;;;;;;25.03;20.20;;;19.20;99.90;;;;;;4954964;28;20190;-65
2021/07/17 04:57:40;;;;;;;23.13;20.50;;;19.30;99.90;;;;;;4956706;29;20177;-64
2021/07/17 05:00:06;;;;;;;26.73;22.03;;;19.50;99.90;;;;;;4956953;29;20178;-65
2021/07/17 05:02:32;;;;;;;27.97;21.60;;;19.50;99.90;;;;;;4956674;28;20401;-64
2021/07/17 05:04:57;;;;;;;24.50;21.27;;;19.60;99.90;;;;;;4956665;28;20425;-65
2021/07/17 05:07:23;;;;;;;25.80;23.20;;;19.70;99.90;;;;;;4956914;29;20189;-64
2021/07/17 05:09:48;;;;;;;23.43;20.40;;;19.60;99.90;;;;;;4956302;29;20205;-65
2021/07/17 05:12:14;;;;;;;25.37;21.70;;;19.70;99.90;;;;;;4955458;29;20253;-65
2021/07/17 05:14:39;;;;;;;25.70;23.00;;;19.70;99.90;;;;;;4956525;28;20201;-65
2021/07/17 05:17:05;;;;;;;25.37;22.23;;;19.60;99.90;;;;;;4956747;29;20174;-65
2021/07/17 05:19:31;;;;;;;26.20;22.67;;;19.60;99.90;;;;;;4955870;29;20173;-65
2021/07/17 05:21:57;;;;;;;25.60;22.50;;;19.70;99.90;;;;;;4955147;29;20524;-65
2021/07/17 05:24:22;;;;;;;25.97;21.30;;;19.90;99.90;;;;;;4956426;28;20198;-65
2021/07/17 05:26:48;;;;;;;21.47;19.27;;;19.70;99.90;;;;;;4956626;29;20573;-65
2021/07/17 05:29:13;;;;;;;22.23;19.93;;;19.60;99.90;;;;;;4954204;29;20745;-65
2021/07/17 05:31:39;;;;;;;24.13;20.60;;;19.50;99.90;;;;;;4955951;29;20166;-65
2021/07/17 05:34:04;;;;;;;26.40;19.70;;;19.70;99.90;;;;;;4955835;28;20194;-64
2021/07/17 05:36:30;;;;;;;21.87;19.57;;;19.70;99.90;;;;;;4956015;29;20221;-65
2021/07/17 05:38:56;;;;;;;21.57;19.40;;;19.70;99.90;;;;;;4955941;29;20185;-65
2021/07/17 05:41:21;;;;;;;25.70;21.07;;;19.80;99.90;;;;;;4955946;29;20182;-65
2021/07/17 05:43:47;;;;;;;24.80;20.93;;;20.10;99.90;;;;;;4955388;28;20683;-65
2021/07/17 05:46:12;;;;;;;24.07;21.47;;;20.20;99.90;;;;;;4955775;29;20170;-65
2021/07/17 05:48:38;;;;;;;21.50;19.33;;;20.20;99.90;;;;;;4942090;29;20206;-65
2021/07/17 05:51:03;;;;;;;21.30;19.10;;;20.20;99.90;;;;;;4937077;29;20197;-64
2021/07/17 05:53:29;;;;;;;20.70;18.60;;;20.30;99.90;;;;;;4936686;29;20191;-64
2021/07/17 05:55:55;;;;;;;24.20;21.07;;;20.40;99.90;;;;;;4944111;29;20192;-64
2021/07/17 05:58:21;;;;;;;22.93;20.37;;;20.50;99.90;;;;;;4956199;29;20624;-64
2021/07/17 06:00:46;;;;;;;21.00;18.90;;;20.40;99.90;;;;;;4937280;29;20186;-65
2021/07/17 06:03:12;;;;;;;21.13;18.93;;;20.30;99.90;;;;;;4942804;28;20536;-65
2021/07/17 06:05:38;;;;;;;21.53;19.17;;;20.40;99.90;;;;;;4955720;29;20190;-65
2021/07/17 06:08:03;;;;;;;20.80;18.13;;;20.40;99.90;;;;;;4955448;29;20602;-65
2021/07/17 06:10:29;;;;;;;25.40;19.27;;;20.30;99.90;;;;;;4954197;29;20271;-65
2021/07/17 06:12:55;;;;;;;20.00;17.93;;;20.40;99.90;;;;;;4955638;29;20473;-65
2021/07/17 06:15:20;;;;;;;23.53;20.30;;;20.10;99.90;;;;;;4954219;29;20198;-65
2021/07/17 06:17:47;;;;;;;18.77;16.87;;;20.00;99.90;;;;;;4955416;29;20195;-65
2021/07/17 06:20:13;;;;;;;21.77;19.67;;;20.00;99.90;;;;;;4955503;28;20174;-65
2021/07/17 06:22:38;;;;;;;25.90;21.33;;;20.00;99.90;;;;;;4953905;29;20432;-65
2021/07/17 06:25:04;;;;;;;23.33;19.43;;;19.90;99.90;;;;;;4955306;28;20208;-65
2021/07/17 06:27:30;;;;;;;23.77;19.67;;;20.00;99.90;;;;;;4955831;28;20178;-65
2021/07/17 06:29:56;;;;;;;25.90;19.00;;;20.00;99.90;;;;;;4954448;29;20480;-65
2021/07/17 06:32:21;;;;;;;27.00;22.70;;;19.90;99.90;;;;;;4955862;29;20169;-65
2021/07/17 06:34:47;;;;;;;21.70;18.80;;;20.00;99.90;;;;;;4956316;28;20201;-65
2021/07/17 06:37:13;;;;;;;23.53;21.03;;;20.10;99.90;;;;;;4942997;29;20170;-65
2021/07/17 06:39:38;;;;;;;20.27;18.17;;;20.00;99.90;;;;;;4927950;29;20522;-65
2021/07/17 06:42:04;;;;;;;19.33;17.23;;;20.00;99.90;;;;;;4942582;29;20232;-64
2021/07/17 06:44:30;;;;;;;21.27;17.23;;;20.10;99.90;;;;;;4957060;28;20261;-65
2021/07/17 06:46:55;;;;;;;23.80;20.67;;;20.20;99.90;;;;;;4955598;29;20202;-65
2021/07/17 06:49:21;;;;;;;24.70;19.97;;;20.10;99.90;;;;;;4956028;29;20198;-65
2021/07/17 06:51:46;;;;;;;19.30;17.33;;;20.00;99.90;;;;;;4956258;29;20176;-65
2021/07/17 06:54:12;;;;;;;21.93;18.40;;;20.10;99.90;;;;;;4953878;28;20194;-64
2021/07/17 06:56:37;;;;;;;25.60;18.87;;;20.10;99.90;;;;;;4955707;29;20546;-65
2021/07/17 06:59:03;;;;;;;22.10;17.93;;;20.30;99.90;;;;;;4955802;29;20244;-65
2021/07/17 07:01:29;;;;;;;22.50;17.40;;;20.10;99.90;;;;;;4955590;29;20253;-65
2021/07/17 07:03:55;;;;;;;21.37;15.80;;;20.30;99.90;;;;;;4953793;28;20267;-64
2021/07/17 07:06:20;;;;;;;26.10;18.83;;;20.40;99.90;;;;;;4955721;29;20556;-64
2021/07/17 07:08:46;;;;;;;19.77;17.33;;;20.30;99.90;;;;;;4955540;29;20464;-65
2021/07/17 07:11:12;;;;;;;19.53;17.37;;;20.20;99.90;;;;;;4955827;29;20177;-66
2021/07/17 07:13:37;;;;;;;22.83;17.70;;;20.30;99.90;;;;;;4958617;28;20678;-65
2021/07/17 07:16:03;;;;;;;19.53;17.53;;;20.40;99.90;;;;;;4959856;29;20214;-65
2021/07/17 07:18:30;;;;;;;26.07;19.20;;;20.40;99.90;;;;;;4959242;28;20556;-65
2021/07/17 07:20:56;;;;;;;22.17;19.73;;;20.30;99.90;;;;;;4958222;29;20440;-64
2021/07/17 07:23:21;;;;;;;24.50;18.10;;;20.40;99.90;;;;;;4959905;28;20523;-65
2021/07/17 07:25:47;;;;;;;20.50;17.30;;;20.40;99.90;;;;;;4959382;29;20174;-64
2021/07/17 07:28:13;;;;;;;21.00;18.80;;;20.50;99.90;;;;;;4959423;29;20204;-64
2021/07/17 07:30:38;;;;;;;19.43;17.20;;;20.40;99.90;;;;;;4959073;29;20166;-64
2021/07/17 07:33:04;;;;;;;18.70;16.80;;;20.40;99.90;;;;;;4958328;28;20640;-64
2021/07/17 07:35:29;;;;;;;20.97;17.90;;;20.60;99.90;;;;;;4957954;29;20181;-65
2021/07/17 07:37:56;;;;;;;23.20;19.77;;;20.70;99.90;;;;;;4958219;29;20548;-65
2021/07/17 07:40:25;;;;;;;20.10;16.93;;;20.90;99.90;;;;;;4958097;28;20527;-65
2021/07/17 07:42:51;;;;;;;18.63;16.20;;;20.90;99.90;;;;;;4958138;28;20420;-65
2021/07/17 07:45:18;;;;;;;19.03;15.97;;;20.80;99.90;;;;;;4957334;28;20464;-65
2021/07/17 07:47:44;;;;;;;21.83;16.63;;;20.80;99.90;;;;;;4958094;28;20417;-65
2021/07/17 07:50:11;;;;;;;24.17;18.50;;;20.80;99.90;;;;;;4958195;29;20900;-65
2021/07/17 07:52:37;;;;;;;19.27;17.17;;;20.90;99.90;;;;;;4956258;28;20236;-65
2021/07/17 07:55:04;;;;;;;22.80;17.30;;;20.90;99.90;;;;;;4957790;28;20425;-65
2021/07/17 07:57:30;;;;;;;23.63;18.23;;;21.00;99.90;;;;;;4957722;28;20410;-65
2021/07/17 07:59:55;;;;;;;20.60;18.50;;;21.00;99.90;;;;;;4957580;29;20755;-65
2021/07/17 08:02:21;;;;;;;22.60;17.40;;;21.20;99.90;;;;;;4957616;29;20174;-66
2021/07/17 08:04:46;;;;;;;23.77;18.50;;;20.90;99.90;;;;;;4949753;28;20234;-65
2021/07/17 08:07:12;;;;;;;21.80;17.90;;;20.70;99.90;;;;;;4944384;29;20174;-66
2021/07/17 08:09:38;;;;;;;24.37;19.07;;;20.40;99.90;;;;;;4957491;29;20284;-66
2021/07/17 08:12:04;;;;;;;26.07;20.33;;;20.50;99.90;;;;;;4957674;29;20658;-66
2021/07/17 08:14:29;;;;;;;20.27;17.40;;;20.30;99.90;;;;;;4957504;28;20273;-66
2021/07/17 08:16:55;;;;;;;29.17;21.73;;;20.30;99.90;;;;;;4955860;29;20196;-66
2021/07/17 08:19:21;;;;;;;23.00;20.70;;;20.30;99.90;;;;;;4957791;28;20585;-66
2021/07/17 08:21:46;;;;;;;28.67;21.57;;;20.30;99.90;;;;;;4957817;29;20413;-66
2021/07/17 08:24:12;;;;;;;24.80;22.27;;;20.30;99.90;;;;;;4957196;28;20205;-65
2021/07/17 08:26:37;;;;;;;26.93;21.00;;;20.40;99.90;;;;;;4958030;29;20224;-65
2021/07/17 08:29:05;;;;;;;23.07;19.53;;;20.10;99.90;;;;;;4958239;28;20667;-66
2021/07/17 08:31:30;;;;;;;24.70;21.67;;;20.10;99.90;;;;;;4956914;28;20190;-65
2021/07/17 08:33:56;;;;;;;31.63;19.40;;;20.30;99.90;;;;;;4957251;28;20460;-65
2021/07/17 08:36:22;;;;;;;25.53;21.53;;;20.40;99.90;;;;;;4957051;29;20623;-64
2021/07/17 08:38:47;;;;;;;25.60;20.00;;;20.40;99.90;;;;;;4957234;29;20166;-65
2021/07/17 08:41:15;;;;;;;28.27;20.80;;;20.40;99.90;;;;;;4955388;29;20174;-65
2021/07/17 08:43:40;;;;;;;22.13;19.87;;;20.50;99.90;;;;;;4956977;28;20205;-65
2021/07/17 08:46:06;;;;;;;21.70;19.40;;;20.50;99.90;;;;;;4955801;29;20418;-66
2021/07/17 08:48:33;;;;;;;24.47;20.23;;;20.70;99.90;;;;;;4955043;28;20240;-66
2021/07/17 08:51:00;;;;;;;23.20;18.13;;;20.90;99.90;;;;;;4956918;28;20406;-66
2021/07/17 08:53:26;;;;;;;22.60;19.73;;;20.70;99.90;;;;;;4954996;28;20456;-65
2021/07/17 08:55:54;;;;;;;24.33;21.00;;;20.80;99.90;;;;;;4956918;28;20963;-65
2021/07/17 08:58:20;;;;;;;26.03;20.50;;;20.80;99.90;;;;;;4955492;28;20410;-65
2021/07/17 09:00:46;;;;;;;24.47;20.03;;;21.10;99.90;;;;;;4956668;28;20416;-65
2021/07/17 09:03:17;;;;;;;21.13;17.30;;;21.00;99.90;;;;;;4957268;28;20492;-65
2021/07/17 09:05:48;;;;;;;20.27;16.73;;;21.50;99.90;;;;;;4956592;28;20405;-66
2021/07/17 09:08:16;;;;;;;18.80;16.67;;;21.70;99.90;;;;;;4956577;28;20452;-64
2021/07/17 09:10:53;;;;;;;19.77;17.67;;;21.80;99.90;;;;;;4956466;28;20414;-65
2021/07/17 09:13:25;;;;;;;21.33;18.93;;;21.90;99.90;;;;;;4956450;28;20432;-65
2021/07/17 09:15:55;;;;;;;20.93;16.97;;;21.90;99.90;;;;;;4956337;28;20410;-65
2021/07/17 09:18:31;;;;;;;22.33;19.23;;;22.00;99.90;;;;;;4955124;28;20429;-65
2021/07/17 09:21:06;;;;;;;20.47;17.80;;;21.90;99.90;;;;;;4955973;28;20405;-65
2021/07/17 09:23:35;;;;;;;20.27;16.73;;;21.90;99.90;;;;;;4956066;28;20433;-65
2021/07/17 09:26:09;;;;;;;21.53;19.23;;;21.80;99.90;;;;;;4956371;28;20790;-65
2021/07/17 09:28:35;;;;;;;19.23;17.07;;;21.60;99.90;;;;;;4954525;28;20547;-65
2021/07/17 09:31:01;;;;;;;24.03;19.83;;;21.40;99.90;;;;;;4929104;28;20515;-65
2021/07/17 09:33:28;;;;;;;23.50;18.20;;;21.40;99.90;;;;;;4935985;29;20241;-65
2021/07/17 09:35:56;;;;;;;17.97;16.20;;;21.30;99.90;;;;;;4936124;29;20266;-64
2021/07/17 09:38:23;;;;;;;19.87;16.97;;;21.20;99.90;;;;;;4937423;29;20422;-65
2021/07/17 09:40:57;;;;;;;30.07;21.33;;;21.30;99.90;;;;;;4936701;29;20407;-66
2021/07/17 09:43:36;;;;;;;22.20;18.40;;;21.10;99.90;;;;;;4936382;29;20457;-66
2021/07/17 09:46:22;;;;;;;19.03;17.10;;;21.20;99.90;;;;;;4937991;29;20391;-65
2021/07/17 09:48:53;;;;;;;26.50;18.17;;;21.30;99.90;;;;;;4936572;29;20450;-66
2021/07/17 09:51:28;;;;;;;20.53;18.10;;;21.00;99.90;;;;;;4937303;29;20409;-65
2021/07/17 09:54:00;;;;;;;23.23;19.70;;;20.70;99.90;;;;;;4948245;28;20855;-66
2021/07/17 09:56:28;;;;;;;21.37;17.07;;;20.70;99.90;;;;;;4955678;28;20791;-65
2021/07/17 09:58:57;;;;;;;20.57;17.30;;;20.70;99.90;;;;;;4955410;28;20469;-65
2021/07/17 10:01:29;;;;;;;21.83;16.57;;;20.80;99.90;;;;;;4953641;28;20457;-65
2021/07/17 10:03:59;;;;;;;19.10;15.60;;;20.90;99.90;;;;;;4955449;28;20892;-64
2021/07/17 10:06:26;;;;;;;17.13;15.10;;;21.20;99.90;;;;;;4955344;29;20433;-64
2021/07/17 10:08:51;;;;;;;19.50;17.43;;;21.40;99.90;;;;;;4955351;29;20575;-64
2021/07/17 10:11:23;;;;;;;24.70;18.10;;;21.50;99.90;;;;;;4936708;29;21022;-65
2021/07/17 10:13:49;;;;;;;21.47;18.10;;;21.50;99.90;;;;;;4935962;29;20683;-65
2021/07/17 10:16:20;;;;;;;23.30;18.13;;;21.50;99.90;;;;;;4935998;29;20409;-65
2021/07/17 10:18:46;;;;;;;21.60;16.40;;;21.40;99.90;;;;;;4936536;29;20232;-64
2021/07/17 10:21:12;;;;;;;19.80;17.83;;;21.60;99.90;;;;;;4936296;29;20883;-65
2021/07/17 10:23:39;;;;;;;21.30;17.37;;;21.90;99.90;;;;;;4935866;29;20436;-65
2021/07/17 10:26:05;;;;;;;18.70;16.77;;;21.80;99.90;;;;;;4935693;29;20551;-65
2021/07/17 10:28:30;;;;;;;20.10;18.00;;;21.80;99.90;;;;;;4936400;29;20454;-65
2021/07/17 10:30:58;;;;;;;19.30;17.20;;;21.90;99.90;;;;;;4946901;29;20440;-64
2021/07/17 10:33:26;;;;;;;19.43;17.27;;;22.10;99.90;;;;;;4955204;28;20657;-65
2021/07/17 10:35:58;;;;;;;19.13;17.23;;;22.30;99.90;;;;;;4955114;28;20944;-64
2021/07/17 10:38:24;;;;;;;19.00;17.00;;;22.40;99.90;;;;;;4954961;28;20413;-65
2021/07/17 10:40:51;;;;;;;24.87;19.17;;;22.50;99.90;;;;;;4954982;29;20405;-65
2021/07/17 10:43:18;;;;;;;22.50;19.73;;;22.50;99.90;;;;;;4955251;28;20576;-64
2021/07/17 10:45:45;;;;;;;23.90;19.53;;;22.50;99.90;;;;;;4953313;28;20425;-66
2021/07/17 10:48:28;;;;;;;21.47;18.13;;;22.50;99.90;;;;;;4954598;29;20484;-64
2021/07/17 10:50:56;;;;;;;19.47;17.47;;;22.70;99.90;;;;;;4955404;28;20402;-64
2021/07/17 10:53:40;;;;;;;18.40;16.50;;;22.80;99.90;;;;;;4955001;28;20496;-65
2021/07/17 10:56:27;;;;;;;20.00;17.13;;;22.90;99.90;;;;;;4954691;28;20413;-65
2021/07/17 10:58:58;;;;;;;20.30;16.40;;;22.90;99.90;;;;;;4954603;29;20413;-65
2021/07/17 11:01:24;;;;;;;19.87;16.30;;;22.80;99.90;;;;;;4954369;28;20393;-65
2021/07/17 11:03:51;;;;;;;17.53;15.93;;;22.80;99.90;;;;;;4952730;28;20477;-65
2021/07/17 11:06:37;;;;;;;18.17;16.37;;;22.90;99.90;;;;;;4954720;28;20473;-65
2021/07/17 11:09:30;;;;;;;17.67;15.87;;;22.50;99.90;;;;;;4954719;28;20454;-65
2021/07/17 11:12:25;;;;;;;17.70;15.63;;;22.50;99.90;;;;;;4945283;29;20426;-65
2021/07/17 11:14:51;;;;;;;22.40;16.80;;;22.50;99.90;;;;;;4947750;28;20477;-65
2021/07/17 11:17:41;;;;;;;18.23;16.37;;;22.70;99.90;;;;;;4954611;28;20456;-66
2021/07/17 11:20:17;;;;;;;20.50;17.27;;;22.60;99.90;;;;;;4955186;29;20415;-66
2021/07/17 11:22:43;;;;;;;20.10;17.93;;;22.50;99.90;;;;;;4954355;28;20401;-66
2021/07/17 11:25:09;;;;;;;20.33;17.50;;;22.70;99.90;;;;;;4954782;28;20426;-66
2021/07/17 11:27:42;;;;;;;20.17;18.03;;;22.70;99.90;;;;;;4953135;28;20426;-65
2021/07/17 11:30:16;;;;;;;21.40;18.63;;;22.70;99.90;;;;;;4954442;28;20413;-65
2021/07/17 11:33:06;;;;;;;20.20;18.10;;;22.60;99.90;;;;;;4954485;28;20911;-65
2021/07/17 11:35:37;;;;;;;19.53;17.60;;;22.70;99.90;;;;;;4954638;29;20453;-65
2021/07/17 11:38:05;;;;;;;19.40;17.60;;;22.60;99.90;;;;;;4954457;28;20394;-65
2021/07/17 11:40:31;;;;;;;18.10;16.20;;;22.70;99.90;;;;;;4952695;28;20818;-65
2021/07/17 11:43:04;;;;;;;18.67;16.67;;;22.90;99.90;;;;;;4954461;28;20402;-65
2021/07/17 11:45:30;;;;;;;19.33;17.30;;;23.00;99.90;;;;;;4954931;28;20397;-65
2021/07/17 11:48:08;;;;;;;22.83;19.57;;;22.90;99.90;;;;;;4952575;28;20488;-65
2021/07/17 11:50:37;;;;;;;23.10;18.60;;;22.60;99.90;;;;;;4954595;28;20398;-65
2021/07/17 11:53:16;;;;;;;17.60;15.97;;;22.90;99.90;;;;;;4954340;28;20753;-65
2021/07/17 11:55:42;;;;;;;17.73;15.90;;;23.10;99.90;;;;;;4954340;28;20393;-65
2021/07/17 11:58:18;;;;;;;17.60;15.80;;;23.20;99.90;;;;;;4954575;28;20793;-65
2021/07/17 12:00:44;;;;;;;19.13;17.20;;;23.20;99.90;;;;;;4957587;29;20413;-64
2021/07/17 12:03:09;;;;;;;18.47;16.70;;;22.70;99.90;;;;;;4940507;29;20769;-65
2021/07/17 12:05:35;;;;;;;20.47;18.33;;;22.40;99.90;;;;;;4938409;29;20399;-64
2021/07/17 12:08:01;;;;;;;20.83;18.77;;;22.50;99.90;;;;;;4942233;29;20220;-65
2021/07/17 12:10:28;;;;;;;23.93;19.70;;;22.50;99.90;;;;;;4957489;28;20923;-65
2021/07/17 12:12:57;;;;;;;17.13;15.33;;;22.60;99.90;;;;;;4957702;28;20771;-65
2021/07/17 12:15:34;;;;;;;18.23;16.33;;;22.60;99.90;;;;;;4957649;28;20410;-65
2021/07/17 12:18:06;;;;;;;18.03;16.20;;;22.40;99.90;;;;;;4957042;28;20513;-66
2021/07/17 12:20:43;;;;;;;18.93;17.23;;;22.30;99.90;;;;;;4957466;28;20468;-66
2021/07/17 12:23:29;;;;;;;19.47;16.33;;;22.50;99.90;;;;;;4939428;28;20550;-65
2021/07/17 12:26:02;;;;;;;19.30;17.47;;;22.70;99.90;;;;;;4934883;29;20410;-65
2021/07/17 12:28:34;;;;;;;16.90;15.27;;;22.90;99.90;;;;;;4918447;29;20443;-65
2021/07/17 12:31:02;;;;;;;17.63;15.70;;;23.10;99.90;;;;;;4919089;29;20392;-65